Monterey Peninsula Airport
KMRY : now visible

Airfield :











YOU CAN JOIN US ON...

 
LOGIN :

Register | Disclaimer

   EN    FR    IT 

 









Legend :    VFR   Marginal VFR   IFR   Intensive IFR   Very Intensive IFR
Visi :
Ceiling :
>= 8 km
>= 3000ft
5 to 8 km
1000 to 3000 ft
1500m to 5 km
500 to 1000 ft
800 to 1500m
200 to 500 ft
< 800m
< 200 ft
Symbols :   Thunderstorms  Fog  Heavy snow  Heavy precipitations  Wind > 20 kt






- Airport Elevation : 257 ft
- IATA code : MRY


KMRY - Monterey Peninsula

CURRENT METAR :
  • 271254Z 00000KT 10SM OVC007 14/12 A3004 RMK AO2 SLP185 T01390117 $

EXPIRED METARs :
  • 271154Z AUTO 10004KT 10SM OVC009 13/11 A3003 RMK AO2 CIG 007V011 SLP182 T01330111 10161 20128 56008 $
  • 271147Z AUTO 12003KT 10SM FEW002 BKN009 13/11 A3003 RMK AO2 T01330106 $
  • 271140Z AUTO 11004KT 10SM FEW002 BKN011 13/11 A3003 RMK AO2 T01280106 $
  • 271054Z AUTO 19003KT 10SM FEW008 13/12 A3004 RMK AO2 SLP183 T01330117 $

TAF KMRY
Valid from the 27 at 12:00 until the 28 at 12:00 UTC


271120Z 2712/2812 VRB05KT P6SM OVC012
FM271900 29008KT P6SM FEW015
FM272300 26010G15KT 6SM -RA BR OVC020
FM280500 23006KT P6SM OVC015
FM281159 23005KT P6SM SCT015
KZOA FIR / North America



MET'MAP, your aeronautical weather chart ! - Copyright ORBIFLY December 2007 - Disclaimer

ORBIFLY MET'MAP TEAM :

Programming & Development : Alexandra Zaïnal
Concept & original design : Baudouin d'Aumeries
Assistance for programming : Marc-Olivier Méhu
Technical & hardware support : Manuel Goepfert

Contact : metmap@orbifly.com




SOURCES & CREDITS :

   NOAA       Earth
Advisory